sensor_id;sensor_type;location;lat;lon;timestamp;P1;durP1;ratioP1;P2;durP2;ratioP2
78382;SDS011;67668;52.294;4.692;2023-08-06T00:01:49;5.90;;;3.63;;
78382;SDS011;67668;52.294;4.692;2023-08-06T00:04:15;6.55;;;5.07;;
78382;SDS011;67668;52.294;4.692;2023-08-06T00:06:40;5.60;;;3.53;;
78382;SDS011;67668;52.294;4.692;2023-08-06T00:09:05;5.13;;;3.77;;
78382;SDS011;67668;52.294;4.692;2023-08-06T00:11:31;5.30;;;3.78;;
78382;SDS011;67668;52.294;4.692;2023-08-06T00:13:57;6.32;;;3.55;;
78382;SDS011;67668;52.294;4.692;2023-08-06T00:16:22;4.45;;;3.42;;
78382;SDS011;67668;52.294;4.692;2023-08-06T00:18:47;4.43;;;3.38;;
78382;SDS011;67668;52.294;4.692;2023-08-06T00:21:13;5.00;;;3.20;;
78382;SDS011;67668;52.294;4.692;2023-08-06T00:23:39;5.72;;;3.85;;
78382;SDS011;67668;52.294;4.692;2023-08-06T00:26:05;3.90;;;3.25;;
78382;SDS011;67668;52.294;4.692;2023-08-06T00:28:30;5.28;;;3.97;;
78382;SDS011;67668;52.294;4.692;2023-08-06T00:30:56;5.70;;;3.60;;
78382;SDS011;67668;52.294;4.692;2023-08-06T00:33:22;5.65;;;3.88;;
78382;SDS011;67668;52.294;4.692;2023-08-06T00:35:47;5.10;;;3.95;;
78382;SDS011;67668;52.294;4.692;2023-08-06T00:38:13;4.22;;;3.60;;
78382;SDS011;67668;52.294;4.692;2023-08-06T00:40:38;4.75;;;3.58;;
78382;SDS011;67668;52.294;4.692;2023-08-06T00:43:04;5.60;;;3.60;;
78382;SDS011;67668;52.294;4.692;2023-08-06T00:45:29;5.32;;;3.92;;
78382;SDS011;67668;52.294;4.692;2023-08-06T00:47:58;5.40;;;3.88;;
78382;SDS011;67668;52.294;4.692;2023-08-06T00:50:24;6.45;;;4.45;;
78382;SDS011;67668;52.294;4.692;2023-08-06T00:52:50;6.93;;;4.07;;
78382;SDS011;67668;52.294;4.692;2023-08-06T00:55:16;6.65;;;4.10;;
78382;SDS011;67668;52.294;4.692;2023-08-06T00:57:43;6.53;;;4.55;;
78382;SDS011;67668;52.294;4.692;2023-08-06T01:00:09;4.95;;;3.70;;
78382;SDS011;67668;52.294;4.692;2023-08-06T01:02:34;5.75;;;4.50;;
78382;SDS011;67668;52.294;4.692;2023-08-06T01:05:00;5.33;;;4.47;;
78382;SDS011;67668;52.294;4.692;2023-08-06T01:15:23;5.82;;;3.80;;
78382;SDS011;67668;52.294;4.692;2023-08-06T01:17:52;6.05;;;3.85;;
78382;SDS011;67668;52.294;4.692;2023-08-06T01:20:18;6.93;;;4.05;;
78382;SDS011;67668;52.294;4.692;2023-08-06T01:22:45;7.20;;;3.95;;
78382;SDS011;67668;52.294;4.692;2023-08-06T01:25:10;5.25;;;3.78;;
78382;SDS011;67668;52.294;4.692;2023-08-06T01:27:44;5.68;;;3.67;;
78382;SDS011;67668;52.294;4.692;2023-08-06T01:30:15;7.15;;;4.60;;
78382;SDS011;67668;52.294;4.692;2023-08-06T01:32:44;8.48;;;3.90;;
78382;SDS011;67668;52.294;4.692;2023-08-06T01:35:11;4.78;;;3.88;;
78382;SDS011;67668;52.294;4.692;2023-08-06T01:37:38;6.07;;;4.10;;
78382;SDS011;67668;52.294;4.692;2023-08-06T01:40:10;5.57;;;3.88;;
78382;SDS011;67668;52.294;4.692;2023-08-06T01:42:39;5.07;;;4.13;;
78382;SDS011;67668;52.294;4.692;2023-08-06T01:45:06;6.15;;;3.28;;
78382;SDS011;67668;52.294;4.692;2023-08-06T01:47:32;4.72;;;3.00;;
78382;SDS011;67668;52.294;4.692;2023-08-06T01:49:57;5.57;;;3.10;;
78382;SDS011;67668;52.294;4.692;2023-08-06T01:52:26;4.20;;;2.83;;
78382;SDS011;67668;52.294;4.692;2023-08-06T01:54:52;3.80;;;2.85;;
78382;SDS011;67668;52.294;4.692;2023-08-06T01:57:17;3.50;;;2.17;;
78382;SDS011;67668;52.294;4.692;2023-08-06T01:59:42;4.30;;;2.87;;
78382;SDS011;67668;52.294;4.692;2023-08-06T02:02:08;4.43;;;2.80;;
78382;SDS011;67668;52.294;4.692;2023-08-06T02:04:33;5.13;;;3.53;;
78382;SDS011;67668;52.294;4.692;2023-08-06T02:06:59;5.32;;;3.55;;
78382;SDS011;67668;52.294;4.692;2023-08-06T02:09:24;3.80;;;3.40;;
78382;SDS011;67668;52.294;4.692;2023-08-06T02:11:49;5.22;;;3.22;;
78382;SDS011;67668;52.294;4.692;2023-08-06T02:14:15;3.97;;;2.95;;
78382;SDS011;67668;52.294;4.692;2023-08-06T02:16:41;4.63;;;3.28;;
78382;SDS011;67668;52.294;4.692;2023-08-06T02:19:07;4.35;;;3.15;;
78382;SDS011;67668;52.294;4.692;2023-08-06T02:21:32;4.43;;;2.60;;
78382;SDS011;67668;52.294;4.692;2023-08-06T02:23:58;3.25;;;2.75;;
78382;SDS011;67668;52.294;4.692;2023-08-06T02:26:23;3.28;;;2.70;;
78382;SDS011;67668;52.294;4.692;2023-08-06T02:28:49;3.20;;;2.05;;
78382;SDS011;67668;52.294;4.692;2023-08-06T02:31:14;3.93;;;2.93;;
78382;SDS011;67668;52.294;4.692;2023-08-06T02:33:39;5.22;;;4.03;;
78382;SDS011;67668;52.294;4.692;2023-08-06T02:36:05;7.15;;;4.25;;
78382;SDS011;67668;52.294;4.692;2023-08-06T02:38:31;7.25;;;5.45;;
78382;SDS011;67668;52.294;4.692;2023-08-06T02:40:57;6.60;;;5.13;;
78382;SDS011;67668;52.294;4.692;2023-08-06T02:43:23;9.00;;;6.28;;
78382;SDS011;67668;52.294;4.692;2023-08-06T02:45:48;7.85;;;5.60;;
78382;SDS011;67668;52.294;4.692;2023-08-06T02:48:14;7.40;;;6.20;;
78382;SDS011;67668;52.294;4.692;2023-08-06T02:50:40;7.35;;;5.70;;
78382;SDS011;67668;52.294;4.692;2023-08-06T02:53:06;6.82;;;5.10;;
78382;SDS011;67668;52.294;4.692;2023-08-06T02:55:33;7.95;;;4.93;;
78382;SDS011;67668;52.294;4.692;2023-08-06T02:57:59;5.63;;;4.65;;
78382;SDS011;67668;52.294;4.692;2023-08-06T03:00:26;7.07;;;5.20;;
78382;SDS011;67668;52.294;4.692;2023-08-06T03:02:51;5.68;;;5.03;;
78382;SDS011;67668;52.294;4.692;2023-08-06T03:05:17;8.43;;;5.47;;
78382;SDS011;67668;52.294;4.692;2023-08-06T03:07:43;7.85;;;5.45;;
78382;SDS011;67668;52.294;4.692;2023-08-06T03:10:08;6.68;;;5.22;;
78382;SDS011;67668;52.294;4.692;2023-08-06T03:12:34;7.25;;;5.68;;
78382;SDS011;67668;52.294;4.692;2023-08-06T03:14:59;8.90;;;5.43;;
78382;SDS011;67668;52.294;4.692;2023-08-06T03:17:26;6.88;;;5.25;;
78382;SDS011;67668;52.294;4.692;2023-08-06T03:19:51;5.13;;;3.50;;
78382;SDS011;67668;52.294;4.692;2023-08-06T03:22:17;4.95;;;3.40;;
78382;SDS011;67668;52.294;4.692;2023-08-06T03:24:42;3.40;;;2.55;;
78382;SDS011;67668;52.294;4.692;2023-08-06T03:27:07;3.23;;;1.83;;
78382;SDS011;67668;52.294;4.692;2023-08-06T03:29:33;2.67;;;1.58;;
78382;SDS011;67668;52.294;4.692;2023-08-06T03:31:58;3.55;;;1.70;;
78382;SDS011;67668;52.294;4.692;2023-08-06T03:34:24;2.30;;;1.45;;
78382;SDS011;67668;52.294;4.692;2023-08-06T03:36:49;2.53;;;1.40;;
78382;SDS011;67668;52.294;4.692;2023-08-06T03:39:14;4.43;;;1.88;;
78382;SDS011;67668;52.294;4.692;2023-08-06T03:41:40;2.67;;;1.10;;
78382;SDS011;67668;52.294;4.692;2023-08-06T03:44:05;2.42;;;1.25;;
78382;SDS011;67668;52.294;4.692;2023-08-06T03:46:31;1.80;;;0.98;;
78382;SDS011;67668;52.294;4.692;2023-08-06T03:48:59;3.03;;;1.90;;
78382;SDS011;67668;52.294;4.692;2023-08-06T03:51:26;2.70;;;1.20;;
78382;SDS011;67668;52.294;4.692;2023-08-06T03:53:51;3.92;;;1.60;;
78382;SDS011;67668;52.294;4.692;2023-08-06T03:56:17;2.28;;;1.50;;
78382;SDS011;67668;52.294;4.692;2023-08-06T03:58:42;3.08;;;1.92;;
78382;SDS011;67668;52.294;4.692;2023-08-06T04:01:07;2.72;;;1.27;;
78382;SDS011;67668;52.294;4.692;2023-08-06T04:03:34;2.17;;;1.33;;
78382;SDS011;67668;52.294;4.692;2023-08-06T04:06:00;3.50;;;1.45;;
78382;SDS011;67668;52.294;4.692;2023-08-06T04:08:27;5.53;;;1.92;;
78382;SDS011;67668;52.294;4.692;2023-08-06T04:10:53;4.63;;;1.48;;
78382;SDS011;67668;52.294;4.692;2023-08-06T04:13:18;3.10;;;1.88;;
78382;SDS011;67668;52.294;4.692;2023-08-06T04:15:44;2.75;;;1.45;;
78382;SDS011;67668;52.294;4.692;2023-08-06T04:18:10;3.57;;;2.00;;
78382;SDS011;67668;52.294;4.692;2023-08-06T04:20:42;4.13;;;1.80;;
78382;SDS011;67668;52.294;4.692;2023-08-06T04:23:11;2.67;;;1.35;;
78382;SDS011;67668;52.294;4.692;2023-08-06T04:25:36;3.83;;;1.90;;
78382;SDS011;67668;52.294;4.692;2023-08-06T04:28:02;3.40;;;1.42;;
78382;SDS011;67668;52.294;4.692;2023-08-06T04:30:27;3.67;;;1.67;;
78382;SDS011;67668;52.294;4.692;2023-08-06T04:32:53;2.38;;;1.63;;
78382;SDS011;67668;52.294;4.692;2023-08-06T04:35:18;5.15;;;1.52;;
78382;SDS011;67668;52.294;4.692;2023-08-06T04:37:44;2.40;;;1.20;;
78382;SDS011;67668;52.294;4.692;2023-08-06T04:40:09;2.28;;;1.27;;
78382;SDS011;67668;52.294;4.692;2023-08-06T04:42:35;2.75;;;1.38;;
78382;SDS011;67668;52.294;4.692;2023-08-06T04:45:01;2.45;;;1.35;;
78382;SDS011;67668;52.294;4.692;2023-08-06T04:47:27;3.03;;;1.58;;
78382;SDS011;67668;52.294;4.692;2023-08-06T04:49:53;1.77;;;1.30;;
78382;SDS011;67668;52.294;4.692;2023-08-06T04:52:19;2.33;;;1.10;;
78382;SDS011;67668;52.294;4.692;2023-08-06T04:54:44;2.58;;;1.50;;
78382;SDS011;67668;52.294;4.692;2023-08-06T04:57:10;1.75;;;0.85;;
78382;SDS011;67668;52.294;4.692;2023-08-06T04:59:35;1.97;;;1.03;;
78382;SDS011;67668;52.294;4.692;2023-08-06T05:02:01;2.28;;;1.20;;
78382;SDS011;67668;52.294;4.692;2023-08-06T05:04:27;1.67;;;1.10;;
78382;SDS011;67668;52.294;4.692;2023-08-06T05:06:52;1.50;;;0.93;;
78382;SDS011;67668;52.294;4.692;2023-08-06T05:09:18;2.65;;;1.58;;
78382;SDS011;67668;52.294;4.692;2023-08-06T05:11:43;1.98;;;0.85;;
78382;SDS011;67668;52.294;4.692;2023-08-06T05:14:08;2.17;;;1.00;;
78382;SDS011;67668;52.294;4.692;2023-08-06T05:16:34;2.70;;;1.33;;
78382;SDS011;67668;52.294;4.692;2023-08-06T05:18:59;3.05;;;2.13;;
78382;SDS011;67668;52.294;4.692;2023-08-06T05:21:26;2.47;;;1.13;;
78382;SDS011;67668;52.294;4.692;2023-08-06T05:23:53;2.30;;;1.42;;
78382;SDS011;67668;52.294;4.692;2023-08-06T05:26:19;2.88;;;1.88;;
78382;SDS011;67668;52.294;4.692;2023-08-06T05:28:46;1.73;;;1.38;;
78382;SDS011;67668;52.294;4.692;2023-08-06T05:31:12;2.85;;;1.55;;
78382;SDS011;67668;52.294;4.692;2023-08-06T05:33:37;3.85;;;1.27;;
78382;SDS011;67668;52.294;4.692;2023-08-06T05:36:03;3.53;;;1.73;;
78382;SDS011;67668;52.294;4.692;2023-08-06T05:38:29;6.55;;;2.00;;
78382;SDS011;67668;52.294;4.692;2023-08-06T05:40:55;3.17;;;2.08;;
78382;SDS011;67668;52.294;4.692;2023-08-06T05:43:21;5.03;;;2.15;;
78382;SDS011;67668;52.294;4.692;2023-08-06T05:45:48;4.43;;;2.67;;
78382;SDS011;67668;52.294;4.692;2023-08-06T05:48:14;3.33;;;2.13;;
78382;SDS011;67668;52.294;4.692;2023-08-06T05:50:40;4.85;;;2.67;;
78382;SDS011;67668;52.294;4.692;2023-08-06T05:53:06;4.43;;;2.95;;
78382;SDS011;67668;52.294;4.692;2023-08-06T05:55:31;4.55;;;2.40;;
78382;SDS011;67668;52.294;4.692;2023-08-06T05:57:58;5.10;;;2.58;;
78382;SDS011;67668;52.294;4.692;2023-08-06T06:00:23;4.20;;;2.50;;
78382;SDS011;67668;52.294;4.692;2023-08-06T06:02:49;5.13;;;2.85;;
78382;SDS011;67668;52.294;4.692;2023-08-06T06:05:14;7.18;;;3.05;;
78382;SDS011;67668;52.294;4.692;2023-08-06T06:07:39;5.75;;;2.90;;
78382;SDS011;67668;52.294;4.692;2023-08-06T06:10:05;5.85;;;2.80;;
78382;SDS011;67668;52.294;4.692;2023-08-06T06:12:31;4.43;;;2.88;;
78382;SDS011;67668;52.294;4.692;2023-08-06T06:14:56;4.82;;;2.72;;
78382;SDS011;67668;52.294;4.692;2023-08-06T06:17:22;4.63;;;2.70;;
78382;SDS011;67668;52.294;4.692;2023-08-06T06:19:47;5.97;;;2.80;;
78382;SDS011;67668;52.294;4.692;2023-08-06T06:22:13;5.00;;;3.08;;
78382;SDS011;67668;52.294;4.692;2023-08-06T06:24:39;6.05;;;2.58;;
78382;SDS011;67668;52.294;4.692;2023-08-06T06:27:04;6.05;;;3.10;;
78382;SDS011;67668;52.294;4.692;2023-08-06T06:29:30;5.85;;;3.58;;
78382;SDS011;67668;52.294;4.692;2023-08-06T06:31:55;4.22;;;2.78;;
78382;SDS011;67668;52.294;4.692;2023-08-06T06:34:21;7.57;;;3.40;;
78382;SDS011;67668;52.294;4.692;2023-08-06T06:36:47;3.55;;;2.15;;
78382;SDS011;67668;52.294;4.692;2023-08-06T06:39:12;5.30;;;3.10;;
78382;SDS011;67668;52.294;4.692;2023-08-06T06:41:37;5.45;;;2.92;;
78382;SDS011;67668;52.294;4.692;2023-08-06T06:44:03;5.93;;;3.15;;
78382;SDS011;67668;52.294;4.692;2023-08-06T06:46:28;5.45;;;3.22;;
78382;SDS011;67668;52.294;4.692;2023-08-06T06:48:54;5.10;;;2.50;;
78382;SDS011;67668;52.294;4.692;2023-08-06T06:51:19;5.32;;;3.17;;
78382;SDS011;67668;52.294;4.692;2023-08-06T06:53:46;10.80;;;3.80;;
78382;SDS011;67668;52.294;4.692;2023-08-06T06:56:11;5.63;;;3.67;;
78382;SDS011;67668;52.294;4.692;2023-08-06T06:58:37;4.95;;;3.13;;
78382;SDS011;67668;52.294;4.692;2023-08-06T07:01:06;6.18;;;3.28;;
78382;SDS011;67668;52.294;4.692;2023-08-06T07:03:32;6.13;;;3.10;;
78382;SDS011;67668;52.294;4.692;2023-08-06T07:05:58;4.80;;;3.20;;
78382;SDS011;67668;52.294;4.692;2023-08-06T07:08:30;4.43;;;3.00;;
78382;SDS011;67668;52.294;4.692;2023-08-06T07:10:59;3.28;;;2.45;;
78382;SDS011;67668;52.294;4.692;2023-08-06T07:13:30;6.82;;;3.10;;
78382;SDS011;67668;52.294;4.692;2023-08-06T07:15:56;5.80;;;3.00;;
78382;SDS011;67668;52.294;4.692;2023-08-06T07:18:21;3.78;;;2.30;;
78382;SDS011;67668;52.294;4.692;2023-08-06T07:20:49;4.35;;;2.10;;
78382;SDS011;67668;52.294;4.692;2023-08-06T07:23:16;8.10;;;2.60;;
78382;SDS011;67668;52.294;4.692;2023-08-06T07:25:41;5.90;;;2.78;;
78382;SDS011;67668;52.294;4.692;2023-08-06T07:28:07;5.32;;;2.15;;
78382;SDS011;67668;52.294;4.692;2023-08-06T07:30:33;7.13;;;2.25;;
78382;SDS011;67668;52.294;4.692;2023-08-06T07:32:58;5.43;;;2.03;;
78382;SDS011;67668;52.294;4.692;2023-08-06T07:35:24;5.43;;;2.13;;
78382;SDS011;67668;52.294;4.692;2023-08-06T07:37:49;4.13;;;1.92;;
78382;SDS011;67668;52.294;4.692;2023-08-06T07:40:15;4.85;;;2.25;;
78382;SDS011;67668;52.294;4.692;2023-08-06T07:42:40;5.22;;;1.90;;
78382;SDS011;67668;52.294;4.692;2023-08-06T07:45:06;3.63;;;1.75;;
78382;SDS011;67668;52.294;4.692;2023-08-06T07:47:32;5.50;;;1.80;;
78382;SDS011;67668;52.294;4.692;2023-08-06T07:49:57;3.25;;;1.85;;
78382;SDS011;67668;52.294;4.692;2023-08-06T07:52:23;5.97;;;2.08;;
78382;SDS011;67668;52.294;4.692;2023-08-06T07:54:48;3.25;;;1.60;;
78382;SDS011;67668;52.294;4.692;2023-08-06T07:57:14;4.60;;;1.30;;
78382;SDS011;67668;52.294;4.692;2023-08-06T07:59:40;4.25;;;1.48;;
78382;SDS011;67668;52.294;4.692;2023-08-06T08:02:05;2.92;;;1.52;;
78382;SDS011;67668;52.294;4.692;2023-08-06T08:04:30;3.60;;;1.50;;
78382;SDS011;67668;52.294;4.692;2023-08-06T08:06:56;3.83;;;1.77;;
78382;SDS011;67668;52.294;4.692;2023-08-06T08:09:21;3.67;;;1.43;;
78382;SDS011;67668;52.294;4.692;2023-08-06T08:11:47;4.40;;;1.58;;
78382;SDS011;67668;52.294;4.692;2023-08-06T08:14:12;3.93;;;1.30;;
78382;SDS011;67668;52.294;4.692;2023-08-06T08:16:38;4.80;;;1.73;;
78382;SDS011;67668;52.294;4.692;2023-08-06T08:19:03;3.55;;;1.25;;
78382;SDS011;67668;52.294;4.692;2023-08-06T08:21:29;4.45;;;1.05;;
78382;SDS011;67668;52.294;4.692;2023-08-06T08:23:54;3.72;;;1.00;;
78382;SDS011;67668;52.294;4.692;2023-08-06T08:26:20;3.73;;;1.20;;
78382;SDS011;67668;52.294;4.692;2023-08-06T08:28:46;1.83;;;0.95;;
78382;SDS011;67668;52.294;4.692;2023-08-06T08:31:11;2.38;;;0.93;;
78382;SDS011;67668;52.294;4.692;2023-08-06T08:33:40;1.65;;;0.80;;
78382;SDS011;67668;52.294;4.692;2023-08-06T08:36:05;7.93;;;1.08;;
78382;SDS011;67668;52.294;4.692;2023-08-06T08:38:31;1.70;;;0.88;;
78382;SDS011;67668;52.294;4.692;2023-08-06T08:40:56;2.63;;;0.50;;
78382;SDS011;67668;52.294;4.692;2023-08-06T08:43:23;1.58;;;0.60;;
78382;SDS011;67668;52.294;4.692;2023-08-06T08:45:52;3.75;;;1.10;;
78382;SDS011;67668;52.294;4.692;2023-08-06T08:50:47;3.33;;;0.70;;
78382;SDS011;67668;52.294;4.692;2023-08-06T08:53:15;2.13;;;0.70;;
78382;SDS011;67668;52.294;4.692;2023-08-06T08:55:42;2.67;;;0.77;;
78382;SDS011;67668;52.294;4.692;2023-08-06T08:58:08;2.17;;;0.50;;
78382;SDS011;67668;52.294;4.692;2023-08-06T09:00:34;2.10;;;0.60;;
78382;SDS011;67668;52.294;4.692;2023-08-06T09:03:01;1.85;;;0.50;;
78382;SDS011;67668;52.294;4.692;2023-08-06T09:05:29;3.65;;;0.77;;
78382;SDS011;67668;52.294;4.692;2023-08-06T09:07:56;2.72;;;0.70;;
78382;SDS011;67668;52.294;4.692;2023-08-06T09:10:30;3.90;;;0.77;;
78382;SDS011;67668;52.294;4.692;2023-08-06T09:12:56;2.83;;;0.73;;
78382;SDS011;67668;52.294;4.692;2023-08-06T09:15:25;2.35;;;0.60;;
78382;SDS011;67668;52.294;4.692;2023-08-06T09:17:54;1.90;;;0.60;;
78382;SDS011;67668;52.294;4.692;2023-08-06T09:20:20;1.30;;;0.60;;
78382;SDS011;67668;52.294;4.692;2023-08-06T09:22:46;3.35;;;0.80;;
78382;SDS011;67668;52.294;4.692;2023-08-06T09:25:22;3.17;;;0.80;;
78382;SDS011;67668;52.294;4.692;2023-08-06T09:27:53;3.05;;;0.85;;
78382;SDS011;67668;52.294;4.692;2023-08-06T09:30:31;2.20;;;0.80;;
78382;SDS011;67668;52.294;4.692;2023-08-06T09:33:01;5.00;;;0.77;;
78382;SDS011;67668;52.294;4.692;2023-08-06T09:35:30;0.93;;;0.52;;
78382;SDS011;67668;52.294;4.692;2023-08-06T09:38:09;2.00;;;0.63;;
78382;SDS011;67668;52.294;4.692;2023-08-06T09:40:35;1.30;;;0.80;;
78382;SDS011;67668;52.294;4.692;2023-08-06T09:43:01;2.53;;;1.10;;
78382;SDS011;67668;52.294;4.692;2023-08-06T09:45:30;3.90;;;0.80;;
78382;SDS011;67668;52.294;4.692;2023-08-06T09:47:59;3.35;;;1.05;;
78382;SDS011;67668;52.294;4.692;2023-08-06T09:50:31;3.33;;;1.17;;
78382;SDS011;67668;52.294;4.692;2023-08-06T09:52:58;2.97;;;1.23;;
78382;SDS011;67668;52.294;4.692;2023-08-06T09:55:25;5.03;;;1.27;;
78382;SDS011;67668;52.294;4.692;2023-08-06T09:57:54;2.17;;;0.95;;
78382;SDS011;67668;52.294;4.692;2023-08-06T10:00:20;6.15;;;1.20;;
78382;SDS011;67668;52.294;4.692;2023-08-06T10:02:47;3.22;;;1.23;;
78382;SDS011;67668;52.294;4.692;2023-08-06T10:05:14;4.80;;;1.38;;
78382;SDS011;67668;52.294;4.692;2023-08-06T10:07:42;3.85;;;1.08;;
78382;SDS011;67668;52.294;4.692;2023-08-06T10:10:09;2.60;;;0.88;;
78382;SDS011;67668;52.294;4.692;2023-08-06T10:12:39;2.05;;;1.02;;
78382;SDS011;67668;52.294;4.692;2023-08-06T10:15:12;4.70;;;1.40;;
78382;SDS011;67668;52.294;4.692;2023-08-06T10:20:08;4.55;;;1.17;;
78382;SDS011;67668;52.294;4.692;2023-08-06T10:22:34;3.17;;;1.10;;
78382;SDS011;67668;52.294;4.692;2023-08-06T10:25:00;2.22;;;1.80;;
78382;SDS011;67668;52.294;4.692;2023-08-06T10:30:30;4.35;;;1.30;;
78382;SDS011;67668;52.294;4.692;2023-08-06T10:33:00;1.92;;;1.15;;
78382;SDS011;67668;52.294;4.692;2023-08-06T10:35:31;2.45;;;1.20;;
78382;SDS011;67668;52.294;4.692;2023-08-06T10:40:33;3.72;;;1.05;;
78382;SDS011;67668;52.294;4.692;2023-08-06T10:43:02;2.92;;;0.93;;
78382;SDS011;67668;52.294;4.692;2023-08-06T10:45:28;3.88;;;1.35;;
78382;SDS011;67668;52.294;4.692;2023-08-06T10:47:55;2.42;;;0.95;;
78382;SDS011;67668;52.294;4.692;2023-08-06T10:50:22;2.10;;;0.70;;
78382;SDS011;67668;52.294;4.692;2023-08-06T10:52:48;5.47;;;1.00;;
78382;SDS011;67668;52.294;4.692;2023-08-06T10:55:14;2.72;;;0.88;;
78382;SDS011;67668;52.294;4.692;2023-08-06T10:57:46;1.95;;;0.60;;
78382;SDS011;67668;52.294;4.692;2023-08-06T11:00:12;3.37;;;0.60;;
78382;SDS011;67668;52.294;4.692;2023-08-06T11:02:39;2.70;;;0.60;;
78382;SDS011;67668;52.294;4.692;2023-08-06T11:05:05;1.27;;;0.38;;
78382;SDS011;67668;52.294;4.692;2023-08-06T11:07:33;2.25;;;0.60;;
78382;SDS011;67668;52.294;4.692;2023-08-06T11:10:03;1.38;;;0.43;;
78382;SDS011;67668;52.294;4.692;2023-08-06T11:12:30;4.93;;;0.70;;
78382;SDS011;67668;52.294;4.692;2023-08-06T11:14:56;2.50;;;0.57;;
78382;SDS011;67668;52.294;4.692;2023-08-06T11:17:21;2.37;;;0.60;;
78382;SDS011;67668;52.294;4.692;2023-08-06T11:19:47;3.60;;;0.68;;
78382;SDS011;67668;52.294;4.692;2023-08-06T11:22:14;1.33;;;0.65;;
78382;SDS011;67668;52.294;4.692;2023-08-06T11:24:41;3.88;;;1.38;;
78382;SDS011;67668;52.294;4.692;2023-08-06T11:27:15;5.93;;;0.80;;
78382;SDS011;67668;52.294;4.692;2023-08-06T11:29:42;4.03;;;0.50;;
78382;SDS011;67668;52.294;4.692;2023-08-06T11:32:09;1.98;;;0.60;;
78382;SDS011;67668;52.294;4.692;2023-08-06T11:34:35;6.35;;;2.00;;
78382;SDS011;67668;52.294;4.692;2023-08-06T11:37:02;2.60;;;0.75;;
78382;SDS011;67668;52.294;4.692;2023-08-06T11:39:33;2.25;;;0.70;;
78382;SDS011;67668;52.294;4.692;2023-08-06T11:41:59;1.40;;;0.65;;
78382;SDS011;67668;52.294;4.692;2023-08-06T11:44:29;1.42;;;0.88;;
78382;SDS011;67668;52.294;4.692;2023-08-06T11:47:01;2.90;;;0.77;;
78382;SDS011;67668;52.294;4.692;2023-08-06T11:50:04;2.38;;;0.52;;
78382;SDS011;67668;52.294;4.692;2023-08-06T11:52:23;2.55;;;0.60;;
78382;SDS011;67668;52.294;4.692;2023-08-06T11:54:59;1.30;;;0.73;;
78382;SDS011;67668;52.294;4.692;2023-08-06T11:57:35;3.45;;;0.47;;
78382;SDS011;67668;52.294;4.692;2023-08-06T12:00:03;0.75;;;0.35;;
78382;SDS011;67668;52.294;4.692;2023-08-06T12:02:33;3.80;;;0.90;;
78382;SDS011;67668;52.294;4.692;2023-08-06T12:05:10;2.25;;;0.80;;
78382;SDS011;67668;52.294;4.692;2023-08-06T12:07:38;2.72;;;1.25;;
78382;SDS011;67668;52.294;4.692;2023-08-06T12:10:07;2.05;;;0.60;;
78382;SDS011;67668;52.294;4.692;2023-08-06T12:12:33;2.33;;;1.20;;
78382;SDS011;67668;52.294;4.692;2023-08-06T12:15:01;1.65;;;0.80;;
78382;SDS011;67668;52.294;4.692;2023-08-06T12:17:27;2.88;;;0.80;;
78382;SDS011;67668;52.294;4.692;2023-08-06T12:19:52;3.22;;;1.15;;
78382;SDS011;67668;52.294;4.692;2023-08-06T12:22:18;2.00;;;0.60;;
78382;SDS011;67668;52.294;4.692;2023-08-06T12:24:44;2.00;;;0.85;;
78382;SDS011;67668;52.294;4.692;2023-08-06T12:27:11;1.88;;;0.90;;
78382;SDS011;67668;52.294;4.692;2023-08-06T12:29:46;1.98;;;0.80;;
78382;SDS011;67668;52.294;4.692;2023-08-06T12:32:13;1.92;;;0.88;;
78382;SDS011;67668;52.294;4.692;2023-08-06T12:34:39;1.23;;;0.60;;
78382;SDS011;67668;52.294;4.692;2023-08-06T12:37:06;1.20;;;0.52;;
78382;SDS011;67668;52.294;4.692;2023-08-06T12:39:35;1.65;;;0.70;;
78382;SDS011;67668;52.294;4.692;2023-08-06T12:42:05;1.27;;;0.50;;
78382;SDS011;67668;52.294;4.692;2023-08-06T12:44:31;4.05;;;0.90;;
78382;SDS011;67668;52.294;4.692;2023-08-06T12:46:57;1.20;;;0.52;;
78382;SDS011;67668;52.294;4.692;2023-08-06T12:49:23;1.70;;;0.68;;
78382;SDS011;67668;52.294;4.692;2023-08-06T12:51:50;1.92;;;0.63;;
78382;SDS011;67668;52.294;4.692;2023-08-06T12:54:20;1.17;;;0.60;;
78382;SDS011;67668;52.294;4.692;2023-08-06T12:56:46;0.82;;;0.55;;
78382;SDS011;67668;52.294;4.692;2023-08-06T12:59:15;2.22;;;0.70;;
78382;SDS011;67668;52.294;4.692;2023-08-06T13:01:42;1.17;;;0.60;;
78382;SDS011;67668;52.294;4.692;2023-08-06T13:04:10;1.23;;;0.38;;
78382;SDS011;67668;52.294;4.692;2023-08-06T13:06:35;1.15;;;0.45;;
78382;SDS011;67668;52.294;4.692;2023-08-06T13:09:05;0.70;;;0.40;;
78382;SDS011;67668;52.294;4.692;2023-08-06T13:11:32;2.10;;;0.40;;
78382;SDS011;67668;52.294;4.692;2023-08-06T13:14:03;5.93;;;0.68;;
78382;SDS011;67668;52.294;4.692;2023-08-06T13:16:30;1.77;;;0.60;;
78382;SDS011;67668;52.294;4.692;2023-08-06T13:18:56;1.10;;;0.55;;
78382;SDS011;67668;52.294;4.692;2023-08-06T13:21:21;3.17;;;0.68;;
78382;SDS011;67668;52.294;4.692;2023-08-06T13:23:46;2.45;;;0.70;;
78382;SDS011;67668;52.294;4.692;2023-08-06T13:26:13;2.80;;;0.68;;
78382;SDS011;67668;52.294;4.692;2023-08-06T13:28:40;1.40;;;0.68;;
78382;SDS011;67668;52.294;4.692;2023-08-06T13:31:07;2.13;;;0.60;;
78382;SDS011;67668;52.294;4.692;2023-08-06T13:33:33;2.30;;;0.52;;
78382;SDS011;67668;52.294;4.692;2023-08-06T13:35:58;2.70;;;0.50;;
78382;SDS011;67668;52.294;4.692;2023-08-06T13:38:26;1.20;;;0.40;;
78382;SDS011;67668;52.294;4.692;2023-08-06T13:40:51;0.93;;;0.40;;
78382;SDS011;67668;52.294;4.692;2023-08-06T13:43:17;2.03;;;0.55;;
78382;SDS011;67668;52.294;4.692;2023-08-06T13:45:44;2.95;;;0.63;;
78382;SDS011;67668;52.294;4.692;2023-08-06T13:48:09;4.10;;;1.65;;
78382;SDS011;67668;52.294;4.692;2023-08-06T13:50:35;4.82;;;2.42;;
78382;SDS011;67668;52.294;4.692;2023-08-06T13:53:02;5.80;;;1.30;;
78382;SDS011;67668;52.294;4.692;2023-08-06T13:55:27;3.20;;;0.68;;
78382;SDS011;67668;52.294;4.692;2023-08-06T13:57:53;13.25;;;1.25;;
78382;SDS011;67668;52.294;4.692;2023-08-06T14:00:18;2.40;;;0.50;;
78382;SDS011;67668;52.294;4.692;2023-08-06T14:02:44;5.50;;;1.00;;
78382;SDS011;67668;52.294;4.692;2023-08-06T14:05:09;3.20;;;0.40;;
78382;SDS011;67668;52.294;4.692;2023-08-06T14:07:35;4.65;;;0.60;;
78382;SDS011;67668;52.294;4.692;2023-08-06T14:10:01;7.22;;;0.82;;
78382;SDS011;67668;52.294;4.692;2023-08-06T14:12:26;6.03;;;0.80;;
78382;SDS011;67668;52.294;4.692;2023-08-06T14:14:52;10.02;;;1.05;;
78382;SDS011;67668;52.294;4.692;2023-08-06T14:17:17;6.50;;;0.80;;
78382;SDS011;67668;52.294;4.692;2023-08-06T14:19:42;5.10;;;0.85;;
78382;SDS011;67668;52.294;4.692;2023-08-06T14:22:08;5.60;;;0.80;;
78382;SDS011;67668;52.294;4.692;2023-08-06T14:24:33;5.75;;;0.68;;
78382;SDS011;67668;52.294;4.692;2023-08-06T14:26:59;5.75;;;0.80;;
78382;SDS011;67668;52.294;4.692;2023-08-06T14:29:24;4.13;;;0.60;;
78382;SDS011;67668;52.294;4.692;2023-08-06T14:31:50;4.15;;;0.85;;
78382;SDS011;67668;52.294;4.692;2023-08-06T14:34:16;2.30;;;0.40;;
78382;SDS011;67668;52.294;4.692;2023-08-06T14:36:41;4.65;;;0.70;;
78382;SDS011;67668;52.294;4.692;2023-08-06T14:39:08;5.32;;;1.08;;
78382;SDS011;67668;52.294;4.692;2023-08-06T14:41:33;5.47;;;0.70;;
78382;SDS011;67668;52.294;4.692;2023-08-06T14:43:59;3.22;;;0.52;;
78382;SDS011;67668;52.294;4.692;2023-08-06T14:46:24;5.40;;;0.90;;
78382;SDS011;67668;52.294;4.692;2023-08-06T14:48:50;5.20;;;1.10;;
78382;SDS011;67668;52.294;4.692;2023-08-06T14:51:16;7.30;;;0.50;;
78382;SDS011;67668;52.294;4.692;2023-08-06T14:53:44;3.83;;;0.52;;
78382;SDS011;67668;52.294;4.692;2023-08-06T14:56:09;5.40;;;0.80;;
78382;SDS011;67668;52.294;4.692;2023-08-06T14:58:35;5.70;;;0.57;;
78382;SDS011;67668;52.294;4.692;2023-08-06T15:01:01;6.87;;;0.90;;
78382;SDS011;67668;52.294;4.692;2023-08-06T15:03:26;9.52;;;0.80;;